Brest Bretagne Airport

LFRB · Finistère, Brittany, France

METAR history LFRB · Brest Bretagne Airport

Below you see METARs of the last few days. Select a year to browse through older METARs, from the year 2007 onwards.

April 24, 2024

Time Code Weather Temp. Visibility Ceiling Wind METAR/SPECI
20:30
V
10 °C 10 km+ 5,200 ft 310° 310° 5 kt METAR LFRB 241830Z AUTO 31005KT 9999 FEW045 OVC052 10/08 Q1015 TEMPO 4000 SHRA BKN013
20:00
V
10 °C 10 km+ 4,000 ft 310° 310° 6 kt METAR LFRB 241800Z AUTO 31006KT 9999 BKN040 OVC047 10/08 Q1015 TEMPO 4000 SHRA BKN013
19:30
V
10 °C 10 km+ 3,600 ft 300° 300° 5 kt METAR LFRB 241730Z AUTO 30005KT 9999 OVC036 10/08 Q1015 TEMPO 4000 SHRA BKN013
19:00
V
11 °C 10 km+ 3,100 ft 300° 300° 6 kt METAR LFRB 241700Z AUTO 30006KT 270V330 9999 FEW014 OVC031 11/09 Q1015 TEMPO 4000 SHRA BKN013
18:30
M
11 °C 10 km+ 2,900 ft 310° 310° 6 kt METAR LFRB 241630Z AUTO 31006KT 9999 FEW014 SCT022 OVC029 11/09 Q1015 TEMPO 4000 SHRA BKN013
18:00
V
11 °C 10 km+ 3,400 ft 300° 300° 5 kt METAR LFRB 241600Z AUTO 30005KT 9999 FEW015 SCT022 BKN034 11/09 Q1015 TEMPO 2000 SHRA BKN006
17:30
M
11 °C 10 km+ 2,800 ft 300° 300° 6 kt METAR LFRB 241530Z AUTO 30006KT 270V330 9999 FEW010 BKN028 OVC038 11/09 Q1016 TEMPO 2000 SHRA BKN006
17:00
M
11 °C 10 km+ 2,800 ft 340° 340° 6 kt METAR LFRB 241500Z AUTO 34006KT 9999 FEW009 SCT019 OVC028 11/09 Q1016 TEMPO 2000 SHRA BKN006
16:30
M
11 °C 10 km+ 2,400 ft 320° 320° 5 kt METAR LFRB 241430Z AUTO 32005KT 9999 BKN024 OVC031 11/09 Q1016 TEMPO 2000 SHRA BKN006
16:00
M
11 °C 9 km 2,000 ft 340° 340° 7 kt METAR LFRB 241400Z AUTO 34007KT 9000 FEW008 BKN020 OVC028 11/09 Q1017 TEMPO 2000 SHRA BKN006
15:30
I
11 °C 10 km+ 700 ft 340° 340° 5 kt METAR LFRB 241330Z AUTO 34005KT 9999 BKN007 BKN013 OVC030 11/09 Q1017 TEMPO 2000 SHRA
15:00
I
10 °C 4.1 km 600 ft 330° 330° 4 kt METAR LFRB 241300Z AUTO 33004KT 300V360 4100 -DZ BR OVC006 10/09 Q1017 TEMPO 2000 SHRA
14:30
I
11 °C 3.3 km 600 ft 340° 340° 6 kt METAR LFRB 241230Z AUTO 34006KT 3300 -RA BR BKN006 BKN014 OVC022 11/09 Q1017 TEMPO 2000 SHRA
14:00
I
10 °C 2.5 km 600 ft 330° 330° 4 kt METAR LFRB 241200Z AUTO 33004KT 2500 -DZ BR BKN006 BKN014 BKN022 10/09 Q1018 TEMPO 4000 SHRA BECMG SCT020 BKN040
13:30
I
10 °C 4.1 km 2,400 ft 340° 340° 4 kt METAR LFRB 241130Z AUTO 34004KT 4100 DZ BR FEW016 BKN024 OVC031 10/09 Q1018 TEMPO SHRA
13:00
M
11 °C 10 km+ 2,600 ft 320° 320° 5 kt METAR LFRB 241100Z AUTO 32005KT 290V350 9999 BKN026 OVC035 11/09 Q1018 TEMPO 4000 SHRA BKN020TCU
12:30
M
11 °C 10 km+ 2,800 ft 280° 280° 6 kt METAR LFRB 241030Z AUTO 28006KT 250V310 9999 BKN028 OVC034 11/08 Q1019 TEMPO 4000 SHRA BKN020TCU
12:00
V
12 °C 10 km+ 3,300 ft 280° 280° 7 kt METAR LFRB 241000Z AUTO 28007KT 250V320 9999 SCT027 BKN033 OVC042 12/07 Q1019 TEMPO 4000 SHRA
11:30
M
13 °C 10 km+ 2,900 ft 330° 330° 9 kt METAR LFRB 240930Z AUTO 33009KT 290V360 9999 BKN029 BKN034 13/07 Q1019 TEMPO 4000 SHRA
11:00
M
12 °C 10 km+ 2,600 ft 310° 310° 9 kt METAR LFRB 240900Z AUTO 31009KT 280V340 9999 BKN026 BKN036 BKN045 12/06 Q1019 TEMPO 4000 SHRA
10:30
V
12 °C 10 km+ 4,700 ft 330° 330° 10 kt METAR LFRB 240830Z AUTO 33010KT 300V360 9999 FEW020 SCT032 BKN047 12/07 Q1019 TEMPO 4000 SHRA
10:00
V
11 °C 10 km+ 4,000 ft 330° 330° 10 kt METAR LFRB 240800Z AUTO 33010KT 300V360 9999 SCT019 BKN040 BKN047 11/08 Q1019 TEMPO 4000 SHRA
09:30
M
12 °C 10 km+ 1,800 ft 320° 320° 10 kt METAR LFRB 240730Z AUTO 32010KT 9999 BKN018 BKN045 12/08 Q1019 TEMPO 4000 SHRA
09:00
M
10 °C 10 km+ 1,600 ft 320° 320° 9 kt METAR LFRB 240700Z AUTO 32009KT 9999 BKN016 BKN024 BKN033 10/08 Q1019 NOSIG
08:30
V
10 °C 10 km+ 3,300 ft 310° 310° 5 kt METAR LFRB 240630Z AUTO 31005KT 9999 FEW015 SCT020 BKN033 10/07 Q1020 NOSIG
08:00
V
9 °C 10 km+ 4,500 ft 310° 310° 6 kt METAR LFRB 240600Z AUTO 31006KT 9999 FEW018 SCT038 BKN045 09/07 Q1020 NOSIG
07:30
V
9 °C 10 km+ - 310° 310° 6 kt METAR LFRB 240530Z AUTO 31006KT 9999 FEW023 SCT043 09/06 Q1020 NOSIG
07:00
V
9 °C 10 km+ 3,900 ft 310° 310° 6 kt METAR LFRB 240500Z AUTO 31006KT 9999 BKN039 09/06 Q1020 TEMPO 4000 -RA BKN012
06:30
V
9 °C 10 km+ - 320° 320° 8 kt METAR LFRB 240430Z AUTO 32008KT 9999 SCT021 SCT031 09/07 Q1020 TEMPO 4000 -RA BKN012
06:00
M
9 °C 10 km+ 3,000 ft 330° 330° 6 kt METAR LFRB 240400Z AUTO 33006KT 9999 -RADZ SCT017 OVC030 09/07 Q1020 TEMPO 4000 -RA BKN012
05:30
M
9 °C 10 km+ 1,900 ft 300° 300° 5 kt METAR LFRB 240330Z AUTO 30005KT 9999 BKN019 BKN029 BKN037 09/07 Q1021 TEMPO 4000 -RA BKN012
05:00
V
8 °C 10 km+ 4,900 ft 290° 290° 4 kt METAR LFRB 240300Z AUTO 29004KT 9999 FEW017 BKN049 08/06 Q1021 TEMPO 4000 -RA BKN012
04:30
M
7 °C 10 km+ 2,800 ft 300° 300° 5 kt METAR LFRB 240230Z AUTO 30005KT 9999 SCT019 BKN028 07/06 Q1021 TEMPO 4000 -RA BKN012
04:00
V
8 °C 10 km+ - 300° 300° 4 kt METAR LFRB 240200Z AUTO 30004KT 270V330 9999 FEW017 08/06 Q1022 TEMPO 4000 -RA BKN012
03:30
V
8 °C 10 km+ 4,200 ft 320° 320° 6 kt METAR LFRB 240130Z AUTO 32006KT 9999 FEW018 BKN042 08/07 Q1022 TEMPO 4000 -RA BKN012
03:00
V
8 °C 10 km+ 3,900 ft 310° 310° 5 kt METAR LFRB 240100Z AUTO 31005KT 9999 FEW018 BKN039 08/06 Q1022 TEMPO 4000 -RA BKN012
02:30
M
9 °C 10 km+ 1,800 ft 310° 310° 5 kt METAR LFRB 240030Z AUTO 31005KT 9999 BKN018 BKN038 BKN250 09/07 Q1023 TEMPO 4000 -RA BKN012
02:00
V
9 °C 10 km+ 3,700 ft 320° 320° 5 kt METAR LFRB 240000Z AUTO 32005KT 9999 FEW021 OVC037 09/07 Q1023 TEMPO 4000 -RA BKN012
01:30
V
9 °C 10 km+ 3,500 ft 320° 320° 5 kt METAR LFRB 232330Z AUTO 32005KT 9999 FEW020 OVC035 09/07 Q1023 TEMPO 4000 -RA BKN012
01:00
M
9 °C 10 km+ 3,000 ft 320° 320° 5 kt METAR LFRB 232300Z AUTO 32005KT 9999 FEW017 BKN030 BKN040 09/07 Q1023 TEMPO 4000 -RA BKN012
00:30
V
9 °C 10 km+ 3,100 ft 310° 310° 4 kt METAR LFRB 232230Z AUTO 31004KT 9999 FEW017 BKN031 09/07 Q1023 TEMPO 4000 -RA BKN012
00:00
V
9 °C 10 km+ 3,400 ft 330° 330° 5 kt METAR LFRB 232200Z AUTO 33005KT 9999 FEW017 SCT026 BKN034 09/07 Q1023 TEMPO 4000 -RA BKN012

April 23, 2024

Time Code Weather Temp. Visibility Ceiling Wind METAR/SPECI
23:30
V
10 °C 10 km+ 5,400 ft 320° 320° 5 kt METAR LFRB 232130Z AUTO 32005KT 9999 FEW015 SCT023 BKN054 10/08 Q1024 TEMPO 4000 -RA BKN012
23:00
V
10 °C 10 km+ 5,800 ft 310° 310° 7 kt METAR LFRB 232100Z AUTO 31007KT 9999 FEW017 SCT028 BKN058 10/08 Q1023 TEMPO 4000 -RA BKN012
22:30
M
11 °C 10 km+ 1,600 ft 310° 310° 8 kt METAR LFRB 232030Z AUTO 31008KT 9999 BKN016 BKN025 BKN036 11/08 Q1023 TEMPO 4000 -RA BKN012
22:00
V
11 °C 10 km+ 3,100 ft 310° 310° 6 kt METAR LFRB 232000Z AUTO 31006KT 290V350 9999 SCT016 SCT023 BKN031 11/08 Q1023 TEMPO 4000 -RA BKN012
21:30
V
10 °C 10 km+ 3,800 ft 310° 310° 6 kt METAR LFRB 231930Z AUTO 31006KT 9999 SCT021 OVC038 10/07 Q1023 TEMPO 4000 -RA BKN012
21:00
V
11 °C 10 km+ - 310° 310° 7 kt METAR LFRB 231900Z AUTO 31007KT 9999 FEW023 SCT028 11/07 Q1023 TEMPO 4000 -RA BKN012
20:30
V
11 °C 10 km+ 6,000 ft 330° 330° 7 kt METAR LFRB 231830Z AUTO 33007KT 9999 FEW023 SCT028 BKN060 11/07 Q1023 TEMPO 4000 -RA BKN012
20:00
M
12 °C 10 km+ 2,000 ft 320° 320° 9 kt METAR LFRB 231800Z AUTO 32009KT 290V360 9999 BKN020 12/07 Q1024 TEMPO 4000 -RA BKN012
19:30
V
12 °C 10 km+ - 340° 340° 10 kt METAR LFRB 231730Z AUTO 34010KT 310V010 9999 SCT022 12/07 Q1024 TEMPO 4000 -RA BKN012
19:00
V
12 °C 10 km+ - 350° 350° 10 kt METAR LFRB 231700Z AUTO 35010KT 320V020 9999 SCT024 12/06 Q1024 TEMPO 4000 -RA BKN012
18:30
V
13 °C 10 km+ - 350° 350° 9 kt METAR LFRB 231630Z AUTO 35009KT 330V030 9999 SCT026 13/06 Q1024 TEMPO 4000 -RA BKN012
18:00
M
13 °C 10 km+ 2,600 ft 350° 350° 9 kt METAR LFRB 231600Z AUTO 35009KT 310V030 9999 BKN026 13/06 Q1024 NOSIG
17:30
M
13 °C 10 km+ 2,800 ft 360° 360° 9 kt METAR LFRB 231530Z AUTO 36009KT 330V030 9999 BKN028 13/06 Q1024 NOSIG
17:00
M
13 °C 10 km+ 2,800 ft 030° 030° 10 kt METAR LFRB 231500Z AUTO 03010KT 9999 BKN028 13/07 Q1024 TEMPO 4000 SHRA BECMG 33010KT
16:30
V
13 °C 10 km+ - 020° 020° 10 kt METAR LFRB 231430Z AUTO 02010KT 330V050 9999 SCT029 13/05 Q1024 TEMPO 4000 SHRA
16:00
V
14 °C 10 km+ - 030° 030° 9 kt METAR LFRB 231400Z AUTO 03009KT 360V060 9999 SCT027 SCT038 14/07 Q1024 TEMPO 4000 SHRA
15:30
V
14 °C 10 km+ - 020° 020° 10 kt METAR LFRB 231330Z AUTO 02010KT 330V060 9999 SCT030 14/06 Q1024 TEMPO 4000 SHRA
15:00
V
14 °C 10 km+ - 020° 020° 9 - 19 kt METAR LFRB 231300Z AUTO 02009G19KT 350V070 9999 SCT030 SCT035 14/06 Q1024 TEMPO 4000 SHRA
14:30
V
13 °C 10 km+ - 010° 010° 9 kt METAR LFRB 231230Z AUTO 01009KT 330V050 9999 SCT030 13/06 Q1024 TEMPO 4000 SHRA
14:00
M
12 °C 10 km+ 3,000 ft 030° 030° 10 kt METAR LFRB 231200Z AUTO 03010KT 360V060 9999 SCT023 BKN030 BKN038 12/07 Q1024 TEMPO 4000 SHRA
13:30
M
13 °C 10 km+ 2,300 ft 020° 020° 8 kt METAR LFRB 231130Z AUTO 02008KT 330V060 9999 BKN023 BKN030 13/07 Q1024 TEMPO 4000 SHRA
13:00
M
12 °C 10 km+ 2,400 ft 020° 020° 10 kt METAR LFRB 231100Z AUTO 02010KT 340V060 9999 BKN024 OVC033 12/07 Q1024 TEMPO 4000 SHRA
12:30
V
11 °C 10 km+ 3,500 ft 010° 010° 10 kt METAR LFRB 231030Z AUTO 01010KT 330V040 9999 SCT024 BKN035 OVC042 11/06 Q1025 TEMPO 4000 SHRA
12:00
M
12 °C 10 km+ 2,600 ft 040° 040° 10 kt METAR LFRB 231000Z AUTO 04010KT 9999 BKN026 OVC039 12/06 Q1024 TEMPO 4000 SHRA
11:30
V
11 °C 10 km+ 3,900 ft 030° 030° 9 kt METAR LFRB 230930Z AUTO 03009KT 350V080 9999 SCT023 OVC039 11/06 Q1024 TEMPO 4000 SHRA
11:00
V
11 °C 10 km+ 3,800 ft 020° 020° 8 kt METAR LFRB 230900Z AUTO 02008KT 340V060 9999 OVC038 11/06 Q1025 TEMPO 4000 SHRA
10:30
V
10 °C 10 km+ 3,400 ft 010° 010° 6 kt METAR LFRB 230830Z AUTO 01006KT 350V050 9999 OVC034 10/06 Q1024 TEMPO 4000 SHRA
10:00
V
10 °C 10 km+ 3,600 ft 040° 040° 9 kt METAR LFRB 230800Z AUTO 04009KT 9999 BKN036 10/05 Q1024 NOSIG
09:30
V
10 °C 10 km+ - 060° 060° 7 kt METAR LFRB 230730Z AUTO 06007KT 030V090 CAVOK 10/05 Q1024 NOSIG
09:00
V
9 °C 10 km+ - 050° 050° 6 kt METAR LFRB 230700Z AUTO 05006KT CAVOK 09/05 Q1024 TEMPO BKN014
08:30
V
9 °C 10 km+ - 030° 030° 5 kt METAR LFRB 230630Z AUTO 03005KT 9999 SCT030 09/06 Q1024 TEMPO BKN014
08:00
V
7 °C 10 km+ - 050° 050° 5 kt METAR LFRB 230600Z AUTO 05005KT 9999 SCT028 07/05 Q1024 TEMPO BKN014
07:30
M
8 °C 10 km+ 2,400 ft 060° 060° 8 kt METAR LFRB 230530Z AUTO 06008KT 9999 OVC024 08/06 Q1024 TEMPO BKN014
07:00
M
8 °C 10 km+ 2,400 ft 060° 060° 7 kt METAR LFRB 230500Z AUTO 06007KT 9999 OVC024 08/06 Q1023 TEMPO 4000 SHRA BKN012
06:30
M
8 °C 10 km+ 2,200 ft 060° 060° 9 kt METAR LFRB 230430Z AUTO 06009KT 9999 FEW013 OVC022 08/06 Q1023 TEMPO 4000 SHRA BKN012
06:00
M
8 °C 10 km+ 2,400 ft 050° 050° 7 kt METAR LFRB 230400Z AUTO 05007KT 9999 SCT014 BKN024 OVC029 08/06 Q1023 TEMPO 3000 RADZ BKN008
05:30
M
9 °C 10 km+ 2,500 ft 050° 050° 7 kt METAR LFRB 230330Z AUTO 05007KT 9999 OVC025 09/07 Q1023 TEMPO 3000 RADZ BKN008
05:00
M
9 °C 10 km+ 2,600 ft 060° 060° 5 kt METAR LFRB 230300Z AUTO 06005KT 9999 BKN026 BKN039 OVC058 09/06 Q1023 TEMPO 3000 RADZ BKN008
04:30
V
9 °C 10 km+ 3,100 ft 080° 080° 9 kt METAR LFRB 230230Z AUTO 08009KT 9999 FEW015 SCT020 BKN031 09/06 Q1023 TEMPO 3000 RADZ BKN008
04:00
M
10 °C 10 km+ 1,200 ft 360° 360° 5 kt METAR LFRB 230200Z AUTO 36005KT 9999 BKN012 BKN031 OVC043 10/08 Q1023 TEMPO 3000 RADZ BKN008
03:30
M
10 °C 10 km+ 1,500 ft 010° 010° 6 kt METAR LFRB 230130Z AUTO 01006KT 340V040 9999 BKN015 OVC025 10/08 Q1023 TEMPO 3000 RADZ BKN008
03:00
M
10 °C 10 km+ 1,400 ft 010° 010° 7 kt METAR LFRB 230100Z AUTO 01007KT 340V040 9999 BKN014 OVC020 10/08 Q1023 TEMPO 3000 RADZ BKN008
02:30
M
10 °C 10 km+ 2,100 ft 350° 350° 6 kt METAR LFRB 230030Z AUTO 35006KT 9999 SCT013 BKN021 BKN032 10/08 Q1023 TEMPO 3000 RADZ BKN008
02:00
M
10 °C 10 km+ 1,600 ft 360° 360° 7 kt METAR LFRB 230000Z AUTO 36007KT 9999 BKN016 BKN032 OVC050 10/08 Q1024 TEMPO 3000 RADZ BKN008
01:30
M
10 °C 10 km+ 1,500 ft 350° 350° 6 kt METAR LFRB 222330Z AUTO 35006KT 310V020 9999 BKN015 BKN023 BKN032 10/08 Q1024 TEMPO 3000 RADZ BKN008
01:00
M
11 °C 10 km+ 1,500 ft 350° 350° 7 kt METAR LFRB 222300Z AUTO 35007KT 9999 BKN015 OVC050 11/08 Q1024 TEMPO 3000 RADZ BKN008
00:30
M
11 °C 10 km+ 1,200 ft 330° 330° 7 kt METAR LFRB 222230Z AUTO 33007KT 9999 BKN012 BKN041 OVC048 11/09 Q1024 TEMPO 3000 RADZ BKN008
00:00
M
11 °C 10 km+ 1,100 ft 330° 330° 9 kt METAR LFRB 222200Z AUTO 33009KT 9999 BKN011 OVC021 11/09 Q1025 TEMPO 3000 RADZ BKN008

April 22, 2024

Time Code Weather Temp. Visibility Ceiling Wind METAR/SPECI
23:30
M
11 °C 10 km+ 1,200 ft 320° 320° 7 kt METAR LFRB 222130Z AUTO 32007KT 9999 BKN012 BKN017 BKN022 11/09 Q1025 TEMPO 3000 RADZ BKN008
23:00
M
10 °C 10 km+ 1,400 ft 320° 320° 8 kt METAR LFRB 222100Z AUTO 32008KT 9999 BKN014 BKN042 BKN048 10/08 Q1025 TEMPO 3000 RADZ BKN008
22:30
V
11 °C 10 km+ 4,000 ft 320° 320° 9 kt METAR LFRB 222030Z AUTO 32009KT 9999 FEW014 SCT019 BKN040 11/08 Q1025 TEMPO 3000 RADZ BKN008
22:00
M
11 °C 10 km+ 1,600 ft 310° 310° 7 kt METAR LFRB 222000Z AUTO 31007KT 270V330 9999 BKN016 BKN022 BKN041 11/08 Q1025 TEMPO 3000 RA BKN006
21:30
V
10 °C 10 km+ 5,800 ft 310° 310° 5 kt METAR LFRB 221930Z AUTO 31005KT 9999 SCT016 OVC058 10/07 Q1026 TEMPO 3000 RA BKN006
21:00
V
10 °C 10 km+ - 310° 310° 6 kt METAR LFRB 221900Z AUTO 31006KT 270V330 CAVOK 10/06 Q1026 TEMPO 3000 RA BKN006
20:30
V
10 °C 10 km+ 4,400 ft 330° 330° 6 kt METAR LFRB 221830Z AUTO 33006KT 290V360 9999 FEW035 BKN044 BKN054 10/05 Q1026 TEMPO 3000 RA BKN006
20:00
V
11 °C 10 km+ 3,600 ft 340° 340° 8 kt METAR LFRB 221800Z AUTO 34008KT 9999 BKN036 OVC066 11/05 Q1026 TEMPO 3000 RA BKN006
19:30
V
11 °C 10 km+ 5,400 ft 340° 340° 8 kt METAR LFRB 221730Z AUTO 34008KT 9999 FEW045 BKN054 OVC066 11/04 Q1026 TEMPO 3000 RA BKN006
19:00
V
11 °C 10 km+ - 330° 330° 7 kt METAR LFRB 221700Z AUTO 33007KT 310V010 CAVOK 11/04 Q1027 BECMG BKN012
18:30
V
11 °C 10 km+ - 350° 350° 9 kt METAR LFRB 221630Z AUTO 35009KT CAVOK 11/04 Q1027 BECMG BKN012
18:00
V
12 °C 10 km+ - 360° 360° 10 kt METAR LFRB 221600Z AUTO 36010KT 310V030 CAVOK 12/04 Q1027 BECMG BKN012
17:30
V
12 °C 10 km+ - 010° 010° 10 kt METAR LFRB 221530Z AUTO 01010KT 330V040 CAVOK 12/04 Q1027 BECMG BKN012
17:00
V
12 °C 10 km+ - 010° 010° 9 kt METAR LFRB 221500Z AUTO 01009KT 330V070 CAVOK 12/03 Q1028 NOSIG
16:30
V
13 °C 10 km+ 7,600 ft 010° 010° 10 kt METAR LFRB 221430Z AUTO 01010KT 310V060 9999 FEW041 OVC076 13/04 Q1028 NOSIG
16:00
V
13 °C 10 km+ 8,000 ft 360° 360° 10 kt METAR LFRB 221400Z AUTO 36010KT 300V040 9999 FEW042 BKN080 13/04 Q1028 NOSIG
15:30
V
12 °C 10 km+ 4,900 ft 020° 020° 11 kt METAR LFRB 221330Z AUTO 02011KT 340V060 9999 BKN049 12/02 Q1028 NOSIG
15:00
V
13 °C 10 km+ 4,900 ft 010° 010° 12 kt METAR LFRB 221300Z AUTO 01012KT 340V050 9999 BKN049 13/03 Q1028 NOSIG
14:30
V
13 °C 10 km+ 4,900 ft 020° 020° 10 kt METAR LFRB 221230Z AUTO 02010KT 340V050 9999 BKN049 13/03 Q1028 NOSIG
14:00
V
12 °C 10 km+ 5,000 ft 030° 030° 12 kt METAR LFRB 221200Z AUTO 03012KT 360V060 9999 FEW039 BKN050 12/03 Q1028 NOSIG
13:30
V
12 °C 10 km+ 3,900 ft 030° 030° 11 kt METAR LFRB 221130Z AUTO 03011KT 350V060 9999 BKN039 BKN046 BKN052 12/03 Q1029 NOSIG
13:00
V
13 °C 10 km+ 4,200 ft 020° 020° 10 kt METAR LFRB 221100Z AUTO 02010KT 9999 BKN042 BKN048 13/03 Q1029 NOSIG
12:30
V
12 °C 10 km+ 4,000 ft 040° 040° 12 kt METAR LFRB 221030Z AUTO 04012KT 360V070 9999 BKN040 12/03 Q1029 NOSIG
12:00
V
11 °C 10 km+ - 030° 030° 12 kt METAR LFRB 221000Z AUTO 03012KT 360V060 9999 FEW039 SCT064 11/03 Q1029 NOSIG
11:30
V
12 °C 10 km+ 6,400 ft 030° 030° 12 kt METAR LFRB 220930Z AUTO 03012KT 360V070 9999 SCT040 BKN064 12/03 Q1029 NOSIG
11:00
V
11 °C 10 km+ 6,800 ft 030° 030° 10 kt METAR LFRB 220900Z AUTO 03010KT 350V050 9999 SCT039 BKN068 11/03 Q1029 NOSIG
10:30
V
10 °C 10 km+ - 030° 030° 10 kt METAR LFRB 220830Z AUTO 03010KT 9999 FEW036 10/03 Q1029 NOSIG
10:00
V
10 °C 10 km+ - 030° 030° 8 kt METAR LFRB 220800Z AUTO 03008KT 360V060 CAVOK 10/04 Q1029 NOSIG
09:30
V
9 °C 10 km+ - 020° 020° 6 kt METAR LFRB 220730Z AUTO 02006KT CAVOK 09/05 Q1029 NOSIG
09:00
V
8 °C 10 km+ - 020° 020° 5 kt METAR LFRB 220700Z AUTO 02005KT CAVOK 08/05 Q1029 NOSIG
08:30
V
6 °C 10 km+ - 360° 360° 3 kt METAR LFRB 220630Z AUTO 36003KT 9999 FEW033 06/04 Q1029 NOSIG
08:00
V
3 °C 10 km+ 4,800 ft 350° 350° 5 kt METAR LFRB 220600Z AUTO 35005KT 9999 SCT035 BKN048 03/02 Q1029 NOSIG
Report a change